Time;durP1;ratioP1;P1;durP2;ratioP2;P2;SDS_P1;SDS_P2;PMS_P1;PMS_P2;Temp;Humidity;BMP_temperature;BMP_pressure;BME280_temperature;BME280_humidity;BME280_pressure;Samples;Min_cycle;Max_cycle;Signal;HPM_P1;HPM_P2
2023/10/13 00:01:08;;;;;;;5.97;5.10;;;;;;;25.20;51.33;99545.03;5093064;28;20047;-77
2023/10/13 00:03:33;;;;;;;6.30;4.88;;;;;;;25.18;51.75;99541.63;5092899;28;20024;-77
2023/10/13 00:06:03;;;;;;;5.65;4.75;;;;;;;25.18;51.77;99546.13;5093220;28;20477;-77
2023/10/13 00:08:29;;;;;;;6.35;4.55;;;;;;;25.20;51.45;99550.38;5093100;28;20032;-78
2023/10/13 00:11:02;;;;;;;5.20;4.60;;;;;;;25.17;51.58;99539.91;5093247;28;20028;-78
2023/10/13 00:13:29;;;;;;;6.45;4.82;;;;;;;25.19;51.72;99555.84;5093296;28;20028;-78
2023/10/13 00:15:57;;;;;;;6.18;5.00;;;;;;;25.17;51.63;99553.28;5092812;28;20073;-78
2023/10/13 00:18:41;;;;;;;6.18;4.85;;;;;;;25.16;51.40;99558.72;5092693;28;20027;-78
2023/10/13 00:21:14;;;;;;;6.10;4.80;;;;;;;25.15;51.55;99555.22;5092946;28;20085;-77
2023/10/13 00:23:53;;;;;;;5.72;4.75;;;;;;;25.15;51.27;99552.56;5091503;28;20511;-78
2023/10/13 00:26:23;;;;;;;5.63;4.80;;;;;;;25.14;51.59;99556.16;5092927;28;20472;-78
2023/10/13 00:28:58;;;;;;;5.95;5.20;;;;;;;25.12;51.35;99546.59;5092687;28;20055;-78
2023/10/13 00:31:26;;;;;;;6.50;5.30;;;;;;;25.12;51.46;99552.78;5092829;28;20028;-78
2023/10/13 00:33:55;;;;;;;5.80;4.88;;;;;;;25.11;51.43;99556.41;5092251;28;20035;-78
2023/10/13 00:36:21;;;;;;;5.90;5.00;;;;;;;25.10;51.37;99554.72;5092702;28;20065;-78
2023/10/13 00:38:52;;;;;;;5.95;4.85;;;;;;;25.11;51.64;99556.41;5092655;28;20102;-78
2023/10/13 00:41:33;;;;;;;5.50;4.63;;;;;;;25.11;51.68;99556.41;5091821;28;20024;-77
2023/10/13 00:44:04;;;;;;;7.30;5.32;;;;;;;25.09;51.52;99553.03;5092410;28;20024;-78
2023/10/13 00:46:35;;;;;;;5.80;4.50;;;;;;;25.10;51.37;99549.38;5092080;28;20016;-77
2023/10/13 00:49:04;;;;;;;5.75;4.80;;;;;;;25.08;51.76;99548.63;5088919;28;20039;-78
2023/10/13 00:51:34;;;;;;;6.55;5.20;;;;;;;25.05;51.47;99551.56;5092605;28;20028;-78
2023/10/13 00:54:11;;;;;;;6.32;5.10;;;;;;;25.05;51.67;99551.56;5092616;28;20043;-78
2023/10/13 00:56:46;;;;;;;5.38;4.32;;;;;;;25.03;51.43;99548.16;5092339;28;20495;-77
2023/10/13 00:59:13;;;;;;;6.20;5.10;;;;;;;25.03;51.62;99549.00;5087582;28;20124;-77
2023/10/13 01:01:42;;;;;;;6.47;5.40;;;;;;;25.05;51.49;99547.03;5071762;28;20020;-78
2023/10/13 01:04:08;;;;;;;5.53;4.32;;;;;;;25.05;51.68;99546.22;5072004;28;20128;-77
2023/10/13 01:06:37;;;;;;;5.95;4.95;;;;;;;25.04;51.42;99549.84;5072169;28;20067;-77
2023/10/13 01:09:19;;;;;;;6.45;5.38;;;;;;;25.03;51.68;99548.16;5072008;28;20029;-77
2023/10/13 01:11:52;;;;;;;6.13;5.13;;;;;;;25.00;51.24;99546.56;5070505;28;20017;-79
2023/10/13 01:14:23;;;;;;;6.25;4.90;;;;;;;25.00;51.65;99543.91;5072185;28;20116;-78
2023/10/13 01:16:52;;;;;;;5.80;4.95;;;;;;;25.00;51.34;99535.91;5071570;28;20020;-78
2023/10/13 01:19:21;;;;;;;6.55;5.30;;;;;;;24.98;51.54;99527.13;5071940;28;20024;-79
2023/10/13 01:21:49;;;;;;;7.07;5.90;;;;;;;24.99;51.27;99526.16;5071814;28;20043;-78
2023/10/13 01:24:17;;;;;;;6.22;4.85;;;;;;;24.97;51.59;99527.25;5071763;28;20441;-77
2023/10/13 01:26:43;;;;;;;6.05;5.13;;;;;;;24.98;51.42;99526.31;5071764;28;20016;-79
2023/10/13 01:29:13;;;;;;;6.30;5.20;;;;;;;24.99;51.52;99517.31;5080114;28;20022;-78
2023/10/13 01:31:45;;;;;;;6.38;4.75;;;;;;;24.98;51.31;99523.63;5091781;28;20024;-79
2023/10/13 01:34:24;;;;;;;5.93;5.20;;;;;;;24.97;51.34;99513.91;5091959;28;20512;-78
2023/10/13 01:36:53;;;;;;;6.75;5.18;;;;;;;24.94;51.56;99513.19;5092064;28;20365;-79
2023/10/13 01:39:28;;;;;;;5.30;4.80;;;;;;;24.94;51.56;99515.84;5091747;28;20020;-78
2023/10/13 01:41:55;;;;;;;6.20;4.97;;;;;;;24.91;51.17;99502.75;5090204;28;20028;-79
2023/10/13 01:44:24;;;;;;;6.18;5.13;;;;;;;24.93;51.47;99499.94;5091941;28;20028;-78
2023/10/13 01:46:51;;;;;;;6.28;4.93;;;;;;;24.91;51.58;99496.56;5091820;28;20020;-79
2023/10/13 01:49:16;;;;;;;6.43;5.40;;;;;;;24.91;51.32;99497.44;5092037;28;20697;-77
2023/10/13 01:51:42;;;;;;;6.72;5.38;;;;;;;24.93;51.08;99490.13;5092214;28;20032;-79
2023/10/13 01:54:11;;;;;;;5.88;4.88;;;;;;;24.89;51.50;99486.00;5095817;28;20095;-77
2023/10/13 01:56:43;;;;;;;6.18;5.00;;;;;;;24.89;51.25;99483.31;5095540;28;20028;-77
2023/10/13 01:59:11;;;;;;;6.35;5.22;;;;;;;24.89;51.53;99478.00;5095235;28;20032;-78
2023/10/13 02:01:37;;;;;;;6.15;4.88;;;;;;;24.87;51.22;99479.94;5095829;28;20123;-78
2023/10/13 02:04:06;;;;;;;5.88;4.95;;;;;;;24.85;51.41;99476.56;5095877;28;20059;-78
2023/10/13 02:06:36;;;;;;;6.20;5.40;;;;;;;24.87;51.35;99469.25;5095699;28;20523;-78
2023/10/13 02:11:42;;;;;;;6.75;5.70;;;;;;;24.82;51.56;99471.44;5080336;28;20111;-78
2023/10/13 02:14:11;;;;;;;6.93;5.13;;;;;;;24.85;51.08;99470.34;5095258;28;20092;-77
2023/10/13 02:16:36;;;;;;;5.80;4.70;;;;;;;24.84;51.27;99458.81;5095134;28;20056;-79
2023/10/13 02:19:04;;;;;;;6.40;5.38;;;;;;;24.84;51.52;99458.81;5095220;28;20055;-78
2023/10/13 02:21:39;;;;;;;6.38;5.15;;;;;;;24.83;51.31;99448.28;5095148;28;20024;-78
2023/10/13 02:24:13;;;;;;;6.07;4.78;;;;;;;24.84;51.60;99453.47;5095187;28;20649;-77
2023/10/13 02:26:39;;;;;;;5.85;4.88;;;;;;;24.84;51.48;99444.63;5094064;28;20557;-78
2023/10/13 02:29:08;;;;;;;5.63;4.82;;;;;;;24.80;51.42;99447.50;5095291;28;20027;-78
2023/10/13 02:31:37;;;;;;;5.68;4.93;;;;;;;24.82;51.51;99441.22;5095280;28;20024;-77
2023/10/13 02:34:11;;;;;;;6.45;5.43;;;;;;;24.84;51.46;99441.97;5093754;28;20024;-78
2023/10/13 02:36:48;;;;;;;5.97;5.22;;;;;;;24.82;51.50;99441.22;5095097;28;20050;-78
2023/10/13 02:39:24;;;;;;;7.20;5.78;;;;;;;24.80;51.30;99436.81;5095031;28;20028;-78
2023/10/13 02:41:50;;;;;;;6.07;5.13;;;;;;;24.81;51.52;99427.03;5094847;28;20496;-78
2023/10/13 02:44:30;;;;;;;6.50;5.45;;;;;;;24.80;51.57;99419.97;5094454;28;20024;-78
2023/10/13 02:46:57;;;;;;;6.43;5.53;;;;;;;24.80;51.63;99427.97;5094815;28;20075;-78
2023/10/13 02:49:26;;;;;;;6.57;5.28;;;;;;;24.80;51.43;99425.31;5094870;28;20030;-77
2023/10/13 02:51:53;;;;;;;7.13;5.40;;;;;;;24.81;51.37;99421.72;5094827;28;20027;-78
2023/10/13 02:54:18;;;;;;;6.10;5.10;;;;;;;24.82;51.16;99423.41;5094790;28;20027;-77
2023/10/13 02:56:56;;;;;;;7.15;5.72;;;;;;;24.80;51.31;99420.81;5094533;28;20034;-77
2023/10/13 03:00:12;;;;;;;8.50;6.13;;;;;;;24.79;51.45;99423.63;5102260;28;20024;-77
2023/10/13 03:02:28;;;;;;;6.78;5.25;;;;;;;24.78;51.13;99422.75;5111672;28;20036;-78
2023/10/13 03:05:09;;;;;;;6.72;5.22;;;;;;;24.75;51.16;99422.97;5095566;28;20444;-78
2023/10/13 03:07:36;;;;;;;6.63;5.40;;;;;;;24.71;51.42;99415.34;5094316;28;20016;-78
2023/10/13 03:10:09;;;;;;;7.35;5.57;;;;;;;24.71;51.48;99410.00;5094366;28;20028;-78
2023/10/13 03:12:39;;;;;;;6.78;5.40;;;;;;;24.72;51.48;99406.38;5093576;28;20432;-79
2023/10/13 03:17:37;;;;;;;6.82;5.53;;;;;;;24.73;51.29;99402.72;5094205;28;20035;-80
2023/10/13 03:20:05;;;;;;;6.05;4.97;;;;;;;24.72;51.43;99396.56;5094309;28;20012;-78
2023/10/13 03:22:31;;;;;;;8.13;5.57;;;;;;;24.70;51.26;99403.84;5094074;28;20120;-79
2023/10/13 03:25:04;;;;;;;6.35;5.10;;;;;;;24.70;51.43;99400.31;5094268;28;20024;-78
2023/10/13 03:27:41;;;;;;;6.88;5.47;;;;;;;24.69;51.21;99401.28;5093779;28;20020;-78
2023/10/13 03:30:15;;;;;;;6.22;5.38;;;;;;;24.65;51.16;99385.50;5094043;28;20115;-79
2023/10/13 03:32:46;;;;;;;6.07;5.40;;;;;;;24.66;51.12;99400.53;5093810;28;20030;-78
2023/10/13 03:35:24;;;;;;;6.50;5.35;;;;;;;24.66;51.21;99392.53;5093797;28;20103;-78
2023/10/13 03:37:51;;;;;;;7.32;5.85;;;;;;;24.64;51.07;99389.16;5093716;28;20023;-78
2023/10/13 03:43:10;;;;;;;6.05;5.20;;;;;;;24.69;51.25;99387.94;5093499;28;20503;-79
2023/10/13 03:45:42;;;;;;;7.20;6.10;;;;;;;24.67;50.97;99380.06;5093646;28;20065;-79
2023/10/13 03:53:38;;;;;;;6.95;5.25;;;;;;;24.63;51.45;99382.13;5093833;28;20030;-79
2023/10/13 03:56:12;;;;;;;6.93;5.72;;;;;;;24.63;51.04;99382.13;5093205;28;20032;-78
2023/10/13 03:58:53;;;;;;;6.45;5.60;;;;;;;24.63;51.33;99379.44;5093364;28;20097;-78
2023/10/13 04:01:18;;;;;;;5.95;5.30;;;;;;;24.61;51.38;99372.53;5093244;28;20035;-79
2023/10/13 04:17:15;;;;;;;6.88;5.75;;;;;;;24.60;51.36;99371.66;5050810;28;20271;-78
2023/10/13 04:23:17;;;;;;;7.10;5.65;;;;;;;24.60;51.35;99371.66;5050580;28;20532;-78
2023/10/13 04:36:13;;;;;;;7.00;5.63;;;;;;;24.59;51.20;99382.47;5050251;28;20060;-78
2023/10/13 04:41:57;;;;;;;7.57;6.10;;;;;;;24.57;51.19;99369.25;5050097;28;20041;-77
2023/10/13 06:29:25;;;;;;;8.18;6.50;;;;;;;24.44;51.67;99376.53;5098348;28;20030;-78
2023/10/13 06:31:50;;;;;;;8.90;6.45;;;;;;;24.43;51.62;99375.66;5098181;28;20068;-78
2023/10/13 06:34:15;;;;;;;6.88;5.80;;;;;;;24.42;51.82;99370.44;5098246;28;20016;-79
2023/10/13 06:36:46;;;;;;;8.35;6.82;;;;;;;24.42;51.92;99373.09;5098046;28;20024;-77
2023/10/13 06:41:55;;;;;;;10.65;7.22;;;;;;;24.39;52.24;99385.72;5095083;28;20035;-79
2023/10/13 06:44:22;;;;;;;8.45;6.65;;;;;;;24.39;52.31;99382.19;5094913;28;20028;-78
2023/10/13 06:46:49;;;;;;;8.23;6.78;;;;;;;24.42;51.78;99386.44;5095030;28;20024;-78
2023/10/13 06:49:18;;;;;;;7.97;6.30;;;;;;;24.44;52.28;99381.84;5094547;28;20028;-79
2023/10/13 06:51:46;;;;;;;7.72;6.22;;;;;;;24.42;52.04;99384.63;5094802;28;20539;-77
2023/10/13 06:54:19;;;;;;;7.50;6.05;;;;;;;24.44;52.15;99388.03;5094806;28;20027;-78
2023/10/13 06:56:45;;;;;;;8.13;6.10;;;;;;;24.44;52.15;99385.34;5094930;28;20027;-78
2023/10/13 06:59:13;;;;;;;8.20;6.35;;;;;;;24.45;51.87;99388.88;5094684;28;20016;-78
2023/10/13 07:01:40;;;;;;;7.30;5.90;;;;;;;24.41;52.00;99390.94;5094753;28;20145;-79
2023/10/13 07:04:15;;;;;;;7.28;5.90;;;;;;;24.45;52.13;99383.56;5094001;28;20564;-78
2023/10/13 07:06:48;;;;;;;6.82;5.43;;;;;;;24.43;52.22;99386.31;5094852;28;20089;-78
2023/10/13 07:09:39;;;;;;;7.97;6.32;;;;;;;24.42;52.11;99389.09;5094254;28;20107;-77
2023/10/13 07:12:23;;;;;;;7.97;6.65;;;;;;;24.44;52.12;99389.84;5094586;28;20368;-79
2023/10/13 07:14:52;;;;;;;7.68;5.93;;;;;;;24.47;52.49;99386.94;5094662;28;20077;-78
2023/10/13 07:17:25;;;;;;;8.43;6.25;;;;;;;24.46;52.60;99386.06;5094349;28;20021;-79
2023/10/13 07:19:55;;;;;;;7.72;5.82;;;;;;;24.46;52.21;99379.91;5094323;28;20535;-78
2023/10/13 07:22:22;;;;;;;7.45;6.53;;;;;;;24.48;52.41;99394.81;5094274;28;20081;-78
2023/10/13 07:24:48;;;;;;;8.93;7.13;;;;;;;24.50;52.35;99386.72;5094375;28;20016;-78
2023/10/13 07:27:23;;;;;;;8.65;6.60;;;;;;;24.50;52.18;99392.88;5093875;28;20487;-78
2023/10/13 07:29:55;;;;;;;7.68;6.35;;;;;;;24.50;52.29;99392.06;5094438;28;20074;-79
2023/10/13 07:32:25;;;;;;;7.47;6.15;;;;;;;24.49;51.88;99396.53;5094084;28;20035;-79
2023/10/13 07:34:55;;;;;;;8.13;6.43;;;;;;;24.50;52.32;99410.72;5094093;28;20572;-77
2023/10/13 07:37:25;;;;;;;6.20;5.47;;;;;;;24.48;52.23;99401.97;5094129;28;20024;-78
2023/10/13 07:39:50;;;;;;;7.75;6.68;;;;;;;24.48;52.27;99402.81;5093923;28;20028;-79
2023/10/13 07:42:19;;;;;;;7.82;5.95;;;;;;;24.50;52.64;99402.72;5092676;28;20034;-78
2023/10/13 07:44:48;;;;;;;7.38;6.13;;;;;;;24.53;51.95;99405.13;5093907;28;20481;-78
2023/10/13 07:47:14;;;;;;;8.15;6.20;;;;;;;24.49;52.40;99395.66;5093636;28;20020;-77
2023/10/13 07:49:40;;;;;;;8.35;5.93;;;;;;;24.52;52.20;99406.09;5093334;28;20028;-78
2023/10/13 07:52:36;;;;;;;8.05;6.60;;;;;;;24.52;52.32;99406.09;5093897;28;20441;-78
2023/10/13 07:55:00;;;;;;;7.55;6.47;;;;;;;24.48;52.33;99413.50;5093035;28;20107;-78
2023/10/13 07:57:29;;;;;;;7.25;6.43;;;;;;;24.48;52.35;99428.63;5093766;28;20028;-77
2023/10/13 08:00:08;;;;;;;7.15;6.18;;;;;;;24.47;52.67;99408.28;5093538;28;20024;-78
2023/10/13 08:03:07;;;;;;;7.50;6.32;;;;;;;24.46;52.46;99418.06;5093139;28;20445;-78
2023/10/13 08:05:29;;;;;;;8.20;6.22;;;;;;;24.47;52.28;99429.59;5092686;28;20139;-77
2023/10/13 08:07:55;;;;;;;7.70;6.73;;;;;;;24.46;52.33;99427.91;5093474;28;20077;-78
2023/10/13 08:10:29;;;;;;;7.47;6.57;;;;;;;24.43;52.41;99429.00;5093371;28;20035;-78
2023/10/13 08:12:56;;;;;;;7.82;6.03;;;;;;;24.47;52.46;99425.13;5095498;28;20032;-78
2023/10/13 08:15:31;;;;;;;8.07;6.43;;;;;;;24.47;52.49;99437.63;5093350;28;20391;-78
2023/10/13 08:17:58;;;;;;;6.80;6.00;;;;;;;24.45;52.96;99434.22;5092970;28;20047;-78
2023/10/13 08:20:26;;;;;;;6.82;6.00;;;;;;;24.45;52.41;99439.56;5093435;28;20390;-77
2023/10/13 08:23:13;;;;;;;7.15;6.18;;;;;;;24.47;52.55;99424.28;5093533;28;20032;-78
2023/10/13 08:28:53;;;;;;;8.00;6.85;;;;;;;24.46;52.79;99419.91;5070529;28;20036;-77
2023/10/13 08:31:22;;;;;;;7.88;6.32;;;;;;;24.44;53.02;99420.03;5053411;28;20077;-78
2023/10/13 08:33:48;;;;;;;7.97;6.45;;;;;;;24.47;52.78;99416.28;5070304;28;20140;-77
2023/10/13 08:36:29;;;;;;;8.48;6.50;;;;;;;24.47;52.61;99408.28;5070486;28;20032;-78
2023/10/13 08:38:55;;;;;;;9.07;7.32;;;;;;;24.48;53.00;99404.63;5070259;28;20043;-78
2023/10/13 08:43:50;;;;;;;8.02;6.78;;;;;;;24.49;53.03;99406.31;5069996;28;20028;-78
2023/10/13 08:46:30;;;;;;;7.68;6.82;;;;;;;24.49;52.86;99398.31;5069872;28;20119;-78
2023/10/13 08:49:15;;;;;;;7.85;6.60;;;;;;;24.49;52.86;99395.66;5070122;28;20102;-78
2023/10/13 08:51:44;;;;;;;7.88;6.60;;;;;;;24.50;53.01;99397.38;5070103;28;20032;-78
2023/10/13 08:55:02;;;;;;;7.85;6.70;;;;;;;24.51;53.07;99389.25;5050125;28;20032;-78
2023/10/13 08:57:19;;;;;;;8.98;6.82;;;;;;;24.50;53.05;99384.06;5047998;28;20071;-77
2023/10/13 08:59:53;;;;;;;8.02;6.22;;;;;;;24.53;52.95;99386.47;5069497;28;20115;-78
2023/10/13 09:02:44;;;;;;;7.95;6.65;;;;;;;24.53;53.16;99386.47;5069174;28;20035;-78
2023/10/13 09:05:36;;;;;;;7.65;6.10;;;;;;;24.53;52.81;99386.47;5071177;28;20052;-78
2023/10/13 09:07:55;;;;;;;7.10;6.40;;;;;;;24.55;52.86;99395.19;5072048;28;20033;-78
2023/10/13 09:10:33;;;;;;;7.68;6.20;;;;;;;24.54;52.90;99388.16;5072165;28;20111;-78
2023/10/13 09:13:02;;;;;;;7.80;6.20;;;;;;;24.54;52.68;99393.50;5084096;28;20027;-79
2023/10/13 09:15:59;;;;;;;7.85;6.57;;;;;;;24.56;52.85;99401.38;5092156;28;20036;-78
2023/10/13 09:18:46;;;;;;;7.00;5.78;;;;;;;24.57;52.52;99397.75;5092211;28;20076;-78
2023/10/13 09:21:43;;;;;;;8.00;6.03;;;;;;;24.55;52.34;99405.84;5092355;28;20036;-79
2023/10/13 09:24:26;;;;;;;7.68;6.60;;;;;;;24.56;52.53;99398.72;5092205;28;20031;-79
2023/10/13 09:26:55;;;;;;;7.82;7.03;;;;;;;24.57;52.88;99392.41;5092093;28;20542;-77
2023/10/13 09:29:20;;;;;;;7.72;6.13;;;;;;;24.55;53.01;99395.19;5091982;28;20031;-78
2023/10/13 09:31:48;;;;;;;8.82;6.70;;;;;;;24.57;52.72;99401.28;5092075;28;20024;-78
2023/10/13 09:34:23;;;;;;;7.15;6.45;;;;;;;24.57;52.54;99403.94;5092267;28;20028;-79
2023/10/13 09:36:55;;;;;;;7.40;6.57;;;;;;;24.58;52.55;99394.97;5091974;28;20029;-78
2023/10/13 09:39:30;;;;;;;6.93;5.97;;;;;;;24.56;52.44;99396.91;5090599;28;20070;-77
2023/10/13 09:41:59;;;;;;;7.05;6.32;;;;;;;24.57;52.33;99392.41;5091988;28;20101;-78
2023/10/13 09:44:28;;;;;;;8.35;6.22;;;;;;;24.58;52.36;99394.97;5091658;28;20484;-78
2023/10/13 09:47:03;;;;;;;6.85;6.03;;;;;;;24.58;52.58;99400.28;5092114;28;20417;-78
2023/10/13 09:49:44;;;;;;;7.35;6.20;;;;;;;24.58;52.71;99392.28;5092035;28;20027;-78
2023/10/13 09:52:18;;;;;;;7.78;6.47;;;;;;;24.60;52.87;99398.34;5092208;28;20028;-78
2023/10/13 09:55:10;;;;;;;7.53;6.72;;;;;;;24.59;52.73;99404.66;5092138;28;20511;-78
2023/10/13 09:57:44;;;;;;;7.07;6.38;;;;;;;24.60;52.95;99401.00;5091652;28;20024;-78
2023/10/13 10:03:29;;;;;;;7.65;6.20;;;;;;;24.60;52.59;99409.03;5092191;28;20085;-79
2023/10/13 10:06:38;;;;;;;7.80;6.55;;;;;;;24.63;52.51;99408.78;5090511;28;20404;-78
2023/10/13 10:08:51;;;;;;;7.47;6.60;;;;;;;24.63;52.43;99405.25;5090639;28;20032;-79
2023/10/13 10:11:26;;;;;;;8.50;6.63;;;;;;;24.62;52.90;99393.75;5091965;28;20023;-77
2023/10/13 10:14:00;;;;;;;8.20;6.68;;;;;;;24.64;52.29;99399.81;5093430;28;20095;-79
2023/10/13 10:17:03;;;;;;;6.57;5.65;;;;;;;24.65;52.59;99395.34;5095507;28;20024;-78
2023/10/13 10:19:28;;;;;;;7.15;6.25;;;;;;;24.64;52.30;99383.81;5095471;28;20028;-78
2023/10/13 10:22:20;;;;;;;7.25;6.32;;;;;;;24.64;52.58;99383.81;5095410;28;20031;-78
2023/10/13 10:25:02;;;;;;;7.53;6.72;;;;;;;24.65;52.31;99380.16;5095668;28;20020;-78
2023/10/13 10:27:31;;;;;;;8.90;6.43;;;;;;;24.67;52.23;99383.59;5095235;28;20081;-78
2023/10/13 10:29:58;;;;;;;7.93;6.30;;;;;;;24.65;52.57;99396.19;5095567;28;20043;-78
2023/10/13 10:32:37;;;;;;;8.77;6.63;;;;;;;24.66;52.57;99392.53;5095176;28;20427;-77
2023/10/13 10:35:07;;;;;;;7.25;6.43;;;;;;;24.66;52.84;99394.38;5095308;28;20052;-78
2023/10/13 10:37:34;;;;;;;7.78;6.50;;;;;;;24.67;52.54;99380.91;5093644;28;20059;-77
2023/10/13 10:40:05;;;;;;;8.05;6.65;;;;;;;24.67;52.66;99393.41;5095126;28;20024;-77
2023/10/13 10:42:31;;;;;;;6.88;5.90;;;;;;;24.69;52.64;99385.28;5094820;28;20055;-78
2023/10/13 10:44:59;;;;;;;7.30;5.80;;;;;;;24.69;52.39;99390.63;5093227;28;20052;-78
2023/10/13 10:47:38;;;;;;;7.15;6.45;;;;;;;24.69;52.50;99388.78;5094790;28;20031;-78
2023/10/13 10:50:08;;;;;;;9.82;6.85;;;;;;;24.70;52.33;99397.66;5094863;28;20024;-79
2023/10/13 10:52:39;;;;;;;7.75;6.78;;;;;;;24.71;52.54;99391.34;5095197;28;20031;-79
2023/10/13 10:55:11;;;;;;;9.07;6.47;;;;;;;24.71;52.41;99399.34;5095089;28;20031;-77
2023/10/13 10:57:43;;;;;;;7.90;6.30;;;;;;;24.72;52.52;99401.91;5094702;28;20016;-78
2023/10/13 11:00:19;;;;;;;8.98;7.32;;;;;;;24.72;52.63;99390.34;5108926;28;20499;-78
2023/10/13 11:02:56;;;;;;;8.20;6.75;;;;;;;24.73;52.39;99394.72;5094743;28;20036;-78
2023/10/13 11:05:24;;;;;;;7.38;6.43;;;;;;;24.73;52.32;99386.72;5094642;28;20063;-77
2023/10/13 11:07:51;;;;;;;7.22;6.25;;;;;;;24.73;52.34;99389.38;5094699;28;20048;-78
2023/10/13 11:10:31;;;;;;;8.45;6.28;;;;;;;24.73;52.29;99386.72;5094620;28;20051;-78
2023/10/13 11:13:50;;;;;;;8.60;6.85;;;;;;;24.74;52.39;99393.78;5094551;28;20034;-77
2023/10/13 11:15:47;;;;;;;7.47;6.03;;;;;;;24.75;52.55;99390.13;5090224;28;20036;-78
2023/10/13 11:18:21;;;;;;;7.50;6.32;;;;;;;24.76;52.53;99381.16;5094478;28;20454;-78
2023/10/13 11:20:54;;;;;;;7.43;6.13;;;;;;;24.76;52.50;99381.16;5093127;28;20064;-78
2023/10/13 11:23:25;;;;;;;7.50;6.35;;;;;;;24.76;52.68;99375.81;5094502;28;20047;-78
2023/10/13 11:25:58;;;;;;;6.90;5.72;;;;;;;24.77;52.43;99372.19;5089746;28;20058;-79
2023/10/13 11:28:27;;;;;;;7.97;6.70;;;;;;;24.78;52.28;99368.53;5085219;28;20148;-79
2023/10/13 11:30:58;;;;;;;8.38;6.78;;;;;;;24.77;52.33;99361.50;5081747;28;20491;-78
2023/10/13 11:33:27;;;;;;;8.25;6.68;;;;;;;24.77;52.43;99367.69;5077477;28;20043;-76
2023/10/13 11:38:27;;;;;;;7.95;6.72;;;;;;;24.78;52.48;99364.06;5091602;28;20499;-79
2023/10/13 11:48:36;;;;;;;8.15;6.30;;;;;;;24.81;52.08;99355.00;5074407;28;20056;-77
2023/10/13 11:51:09;;;;;;;7.70;6.25;;;;;;;24.81;52.33;99349.66;5084695;28;20032;-77
2023/10/13 11:53:35;;;;;;;7.65;6.15;;;;;;;24.82;52.29;99348.69;5083837;28;20028;-77
2023/10/13 11:56:08;;;;;;;6.75;5.85;;;;;;;24.83;52.36;99346.88;5082986;28;20051;-77
2023/10/13 11:58:34;;;;;;;7.40;6.10;;;;;;;24.84;52.43;99338.72;5088379;28;20073;-78
2023/10/13 12:11:48;;;;;;;7.53;6.07;;;;;;;24.85;52.18;99321.75;5097047;28;20040;-79
2023/10/13 12:14:21;;;;;;;7.43;5.80;;;;;;;24.87;52.34;99335.81;5092691;28;20509;-77
2023/10/13 12:16:52;;;;;;;8.13;6.60;;;;;;;24.87;52.23;99327.81;5092847;28;20028;-78
2023/10/13 12:19:23;;;;;;;8.82;6.45;;;;;;;24.87;52.35;99324.28;5092475;28;20028;-78
2023/10/13 12:21:55;;;;;;;7.45;5.90;;;;;;;24.88;52.28;99332.19;5104143;28;20032;-78
2023/10/13 12:27:35;;;;;;;7.80;6.00;;;;;;;24.88;52.38;99325.97;5113385;28;20027;-79
2023/10/13 12:29:58;;;;;;;7.10;5.75;;;;;;;24.89;52.20;99323.19;5095032;28;20561;-78
2023/10/13 12:32:30;;;;;;;8.25;6.32;;;;;;;24.91;51.99;99310.59;5093320;28;20039;-77
2023/10/13 12:34:57;;;;;;;7.70;5.68;;;;;;;24.89;52.02;99312.53;5092771;28;20544;-78
2023/10/13 12:54:04;;;;;;;7.93;5.80;;;;;;;24.92;52.10;99285.59;5072416;28;20036;-79
2023/10/13 12:56:30;;;;;;;7.88;6.15;;;;;;;24.93;51.72;99281.09;5072012;28;20472;-78
2023/10/13 12:58:56;;;;;;;7.63;5.57;;;;;;;24.93;51.79;99287.28;5072197;28;20027;-77
2023/10/13 13:01:32;;;;;;;6.57;5.47;;;;;;;24.93;52.12;99281.94;5072118;28;20028;-77
2023/10/13 13:03:58;;;;;;;6.82;5.03;;;;;;;24.93;51.75;99276.63;5089613;28;20048;-77
2023/10/13 13:06:25;;;;;;;5.90;5.25;;;;;;;24.93;51.87;99279.28;5091521;28;20081;-79
2023/10/13 13:08:56;;;;;;;7.20;5.18;;;;;;;24.94;51.73;99278.31;5092451;28;20020;-79
2023/10/13 13:11:22;;;;;;;6.78;5.43;;;;;;;24.96;51.79;99280.84;5092065;28;20499;-77
2023/10/13 13:13:47;;;;;;;6.85;5.50;;;;;;;24.97;51.60;99271.00;5110156;28;20019;-77
2023/10/13 13:16:35;;;;;;;6.00;4.68;;;;;;;24.98;51.96;99270.91;5103366;28;20036;-78
2023/10/13 13:19:09;;;;;;;6.78;5.18;;;;;;;24.98;51.60;99262.06;5092021;28;20028;-78
2023/10/13 13:21:38;;;;;;;6.78;5.55;;;;;;;24.98;51.75;99264.72;5091783;28;20020;-79
2023/10/13 13:24:05;;;;;;;7.47;5.13;;;;;;;24.99;52.00;99263.75;5092325;28;20028;-78
2023/10/13 13:26:33;;;;;;;6.57;4.95;;;;;;;24.99;51.63;99261.91;5092001;28;20016;-78
2023/10/13 13:28:59;;;;;;;7.07;5.40;;;;;;;24.99;51.89;99255.75;5092070;28;20044;-78
2023/10/13 13:31:29;;;;;;;8.00;5.38;;;;;;;25.00;51.84;99260.09;5091977;28;20436;-78
2023/10/13 13:33:55;;;;;;;6.20;4.78;;;;;;;25.00;51.75;99254.75;5091897;28;20065;-78
2023/10/13 13:36:22;;;;;;;6.47;4.65;;;;;;;25.02;51.42;99256.34;5091793;28;20051;-79
2023/10/13 13:38:51;;;;;;;6.80;5.32;;;;;;;25.03;51.74;99254.53;5091930;28;20073;-78
2023/10/13 13:41:17;;;;;;;7.43;5.25;;;;;;;25.04;51.42;99272.25;5091260;28;20071;-77
2023/10/13 13:46:19;;;;;;;6.45;5.15;;;;;;;25.05;51.66;99257.91;5094497;28;20111;-78
2023/10/13 13:48:47;;;;;;;6.25;4.78;;;;;;;25.05;51.53;99266.75;5094094;28;20023;-79
2023/10/13 13:51:19;;;;;;;7.65;5.20;;;;;;;25.05;51.58;99273.94;5095466;28;20111;-77
2023/10/13 13:53:45;;;;;;;7.13;5.22;;;;;;;25.05;51.49;99266.75;5096018;28;20024;-77
2023/10/13 13:56:15;;;;;;;7.22;4.95;;;;;;;25.05;51.32;99261.41;5095827;28;20065;-77
2023/10/13 13:58:44;;;;;;;6.35;4.90;;;;;;;25.06;51.48;99259.59;5095751;28;20052;-77
2023/10/13 14:01:14;;;;;;;5.70;4.63;;;;;;;25.06;51.45;99259.59;5095662;28;20472;-78
2023/10/13 14:03:45;;;;;;;6.65;5.00;;;;;;;25.07;51.59;99261.28;5095284;28;20035;-77
2023/10/13 14:06:24;;;;;;;6.63;4.88;;;;;;;25.06;51.40;99265.81;5095009;28;20043;-77
2023/10/13 14:08:56;;;;;;;6.45;4.85;;;;;;;25.07;51.65;99266.63;5075128;28;20477;-79
2023/10/13 14:14:12;;;;;;;6.53;5.18;;;;;;;25.09;51.46;99275.38;5052317;28;20162;-77
2023/10/13 14:16:44;;;;;;;6.15;5.13;;;;;;;25.09;51.53;99280.72;5052552;28;20074;-78
2023/10/13 14:19:13;;;;;;;6.70;4.68;;;;;;;25.11;51.61;99283.25;5030578;28;20045;-78
2023/10/13 14:21:39;;;;;;;9.30;5.05;;;;;;;25.11;51.54;99289.44;5032069;28;20033;-78
2023/10/13 14:24:13;;;;;;;6.30;4.70;;;;;;;25.10;51.58;99285.09;5032476;28;20026;-78
2023/10/13 14:26:39;;;;;;;6.97;4.70;;;;;;;25.11;51.38;99292.13;5032343;28;20063;-78
2023/10/13 14:29:08;;;;;;;5.63;4.72;;;;;;;25.11;51.32;99289.44;5032166;28;20060;-78
2023/10/13 14:31:39;;;;;;;6.70;4.82;;;;;;;25.11;51.51;99294.78;5032675;28;20045;-77
2023/10/13 14:34:05;;;;;;;6.45;4.68;;;;;;;25.11;51.51;99292.13;5032258;28;20142;-78
2023/10/13 14:36:34;;;;;;;7.32;4.40;;;;;;;25.13;51.49;99298.16;5032639;28;20252;-78
2023/10/13 14:39:00;;;;;;;6.05;4.35;;;;;;;25.12;51.37;99291.13;5032200;28;20045;-78
2023/10/13 14:41:26;;;;;;;7.82;5.03;;;;;;;25.12;51.63;99291.13;5032092;28;20037;-78
2023/10/13 14:43:52;;;;;;;6.72;5.20;;;;;;;25.12;51.54;99296.47;5031981;28;20148;-78
2023/10/13 14:46:22;;;;;;;6.85;4.97;;;;;;;25.13;51.49;99286.66;5031553;28;20032;-78
2023/10/13 14:48:51;;;;;;;6.70;4.40;;;;;;;25.13;51.37;99298.16;5031944;28;20036;-77
2023/10/13 14:51:17;;;;;;;8.65;5.20;;;;;;;25.14;51.22;99294.50;5064655;28;20418;-78
2023/10/13 14:53:43;;;;;;;7.28;4.85;;;;;;;25.14;51.62;99294.50;5094883;28;20108;-77
2023/10/13 14:56:18;;;;;;;6.60;5.00;;;;;;;25.14;51.36;99286.50;5094787;28;20027;-77
2023/10/13 14:58:44;;;;;;;6.85;4.53;;;;;;;25.15;51.36;99287.38;5094757;28;20039;-79
2023/10/13 15:01:17;;;;;;;6.85;5.20;;;;;;;25.16;51.59;99275.72;5084520;28;20032;-80
2023/10/13 15:03:47;;;;;;;6.43;4.60;;;;;;;25.16;51.25;99278.38;5078597;28;20518;-79
2023/10/13 15:06:29;;;;;;;7.57;5.38;;;;;;;25.15;51.65;99264.19;5090648;28;20430;-79
2023/10/13 15:08:56;;;;;;;6.15;4.53;;;;;;;25.15;51.28;99258.84;5087448;28;20026;-78
2023/10/13 15:11:26;;;;;;;7.35;4.85;;;;;;;25.16;51.61;99260.56;5091488;28;20016;-81
2023/10/13 15:13:52;;;;;;;9.00;4.88;;;;;;;25.17;51.53;99261.38;5084154;28;20035;-79
2023/10/13 15:16:19;;;;;;;8.35;4.80;;;;;;;25.18;51.14;99260.44;5088474;28;20025;-82
2023/10/13 15:18:52;;;;;;;6.70;4.70;;;;;;;25.18;51.48;99252.41;5073109;28;20427;-79
2023/10/13 15:21:37;;;;;;;6.43;4.70;;;;;;;25.18;51.27;99258.59;5088511;28;20040;-80